createdAt,value
2023-03-12T00:00:25.242Z,0.00
2023-03-12T00:01:24.276Z,0.00
2023-03-12T00:02:24.326Z,0.00
2023-03-12T00:03:24.373Z,0.00
2023-03-12T00:04:24.231Z,0.00
2023-03-12T00:05:24.239Z,0.00
2023-03-12T00:06:24.222Z,0.00
2023-03-12T00:07:24.208Z,0.00
2023-03-12T00:08:24.215Z,0.00
2023-03-12T00:09:24.141Z,0.00
2023-03-12T00:10:24.199Z,0.00
2023-03-12T00:11:24.140Z,0.00
2023-03-12T00:12:24.160Z,0.00
2023-03-12T00:13:24.228Z,0.00
2023-03-12T00:14:24.112Z,0.00
2023-03-12T00:15:24.062Z,0.00
2023-03-12T00:16:24.169Z,0.00
2023-03-12T00:17:24.080Z,0.00
2023-03-12T00:18:24.045Z,0.00
2023-03-12T00:19:24.151Z,0.00
2023-03-12T00:20:24.060Z,0.00
2023-03-12T00:21:24.020Z,0.00
2023-03-12T00:22:24.020Z,0.00
2023-03-12T00:23:23.994Z,0.00
2023-03-12T00:24:23.987Z,0.00
2023-03-12T00:25:24.035Z,0.00
2023-03-12T00:26:23.943Z,0.00
2023-03-12T00:27:23.911Z,0.00
2023-03-12T00:28:23.956Z,0.00
2023-03-12T00:29:23.874Z,0.00
2023-03-12T00:30:23.948Z,0.00
2023-03-12T00:31:23.979Z,0.00
2023-03-12T00:32:23.937Z,0.00
2023-03-12T00:33:23.823Z,0.00
2023-03-12T00:34:23.890Z,0.00
2023-03-12T00:35:23.844Z,0.00
2023-03-12T00:36:23.836Z,0.00
2023-03-12T00:37:23.941Z,0.00
2023-03-12T00:38:23.800Z,0.00
2023-03-12T00:39:23.753Z,0.00
2023-03-12T00:40:23.798Z,0.00
2023-03-12T00:41:23.728Z,0.00
2023-03-12T00:42:23.735Z,0.00
2023-03-12T00:43:23.807Z,0.00
2023-03-12T00:44:23.741Z,0.00
2023-03-12T00:45:23.669Z,0.00
2023-03-12T00:46:23.741Z,0.00
2023-03-12T00:47:23.674Z,0.00
2023-03-12T00:48:23.664Z,0.00
2023-03-12T00:49:23.772Z,0.00
2023-03-12T00:50:23.638Z,0.00
2023-03-12T00:51:23.649Z,0.00
2023-03-12T00:52:23.596Z,0.00
2023-03-12T00:53:23.636Z,0.00
2023-03-12T00:54:23.564Z,0.00
2023-03-12T00:55:23.700Z,0.00
2023-03-12T00:56:23.575Z,0.00
2023-03-12T00:57:23.552Z,0.00
2023-03-12T00:58:23.533Z,0.00
2023-03-12T00:59:23.543Z,0.00
2023-03-12T01:00:23.487Z,0.00
2023-03-12T01:01:23.641Z,0.00
2023-03-12T01:02:23.459Z,0.00
2023-03-12T01:03:23.470Z,0.00
2023-03-12T01:04:23.547Z,0.00
2023-03-12T01:05:23.465Z,0.00
2023-03-12T01:06:23.424Z,0.00
2023-03-12T01:07:23.440Z,0.00
2023-03-12T01:08:23.409Z,0.00
2023-03-12T01:09:23.396Z,0.00
2023-03-12T01:10:23.389Z,0.00
2023-03-12T01:11:23.389Z,0.00
2023-03-12T01:12:23.339Z,0.00
2023-03-12T01:13:23.419Z,0.00
2023-03-12T01:14:23.340Z,0.00
2023-03-12T01:15:23.314Z,0.00
2023-03-12T01:16:23.424Z,0.00
2023-03-12T01:17:23.315Z,0.00
2023-03-12T01:18:23.284Z,0.00
2023-03-12T01:19:23.412Z,0.00
2023-03-12T01:20:23.296Z,0.00
2023-03-12T01:21:23.252Z,0.00
2023-03-12T01:22:23.225Z,0.00
2023-03-12T01:23:23.257Z,0.00
2023-03-12T01:24:23.201Z,0.00
2023-03-12T01:25:23.276Z,0.00
2023-03-12T01:26:23.169Z,0.00
2023-03-12T01:27:23.181Z,0.00
2023-03-12T01:28:23.165Z,0.00
2023-03-12T01:29:23.172Z,0.00
2023-03-12T01:30:23.155Z,0.00
2023-03-12T01:31:23.245Z,0.00
2023-03-12T01:32:23.173Z,0.00
2023-03-12T01:33:23.176Z,0.00
2023-03-12T01:34:23.064Z,0.00
2023-03-12T01:35:23.128Z,0.00
2023-03-12T01:36:23.269Z,0.00
2023-03-12T01:37:23.178Z,0.00
2023-03-12T01:38:22.998Z,0.00
2023-03-12T01:39:23.029Z,0.00
2023-03-12T01:40:23.027Z,0.00
2023-03-12T01:41:23.020Z,0.00
2023-03-12T01:42:22.999Z,0.00
2023-03-12T01:43:23.133Z,0.00
2023-03-12T01:44:22.941Z,0.00
2023-03-12T01:45:22.964Z,0.00
2023-03-12T01:46:22.925Z,0.00
2023-03-12T01:47:22.931Z,0.00
2023-03-12T01:48:22.905Z,0.00
2023-03-12T01:49:22.934Z,0.00
2023-03-12T01:50:22.878Z,0.00
2023-03-12T01:51:22.975Z,0.00
2023-03-12T01:52:22.807Z,0.00
2023-03-12T01:53:22.866Z,0.00
2023-03-12T01:54:22.817Z,0.00
2023-03-12T01:55:22.832Z,0.00
2023-03-12T01:56:22.798Z,0.00
2023-03-12T01:57:22.783Z,0.00
2023-03-12T01:58:22.792Z,0.00
2023-03-12T01:59:22.780Z,0.00
2023-03-12T02:00:22.718Z,0.00
2023-03-12T02:01:22.873Z,0.00
2023-03-12T02:02:22.676Z,0.00
2023-03-12T02:03:22.723Z,0.00
2023-03-12T02:04:22.720Z,0.00
2023-03-12T02:05:22.695Z,0.00
2023-03-12T02:06:22.667Z,0.00
2023-03-12T02:07:22.756Z,0.00
2023-03-12T02:08:22.604Z,0.00
2023-03-12T02:09:22.651Z,0.00
2023-03-12T02:10:22.624Z,0.00
2023-03-12T02:11:22.986Z,0.00
2023-03-12T02:12:22.616Z,0.00
2023-03-12T02:13:22.746Z,0.00
2023-03-12T02:14:22.550Z,0.00
2023-03-12T02:15:22.554Z,0.00
2023-03-12T02:16:22.566Z,0.00
2023-03-12T02:17:22.528Z,0.00
2023-03-12T02:18:22.509Z,0.00
2023-03-12T02:19:22.638Z,0.00
2023-03-12T02:20:22.497Z,0.00
2023-03-12T02:21:22.504Z,0.00
2023-03-12T02:22:22.428Z,0.00
2023-03-12T02:23:22.441Z,0.00
2023-03-12T02:24:22.434Z,0.00
2023-03-12T02:25:22.506Z,0.00
2023-03-12T02:26:22.409Z,0.00
2023-03-12T02:27:22.410Z,0.00
2023-03-12T02:28:22.378Z,0.00
2023-03-12T02:29:22.360Z,0.00
2023-03-12T02:30:22.335Z,0.00
2023-03-12T02:31:22.449Z,0.00
2023-03-12T02:32:22.334Z,0.00
2023-03-12T02:33:22.364Z,0.00
2023-03-12T02:34:22.288Z,0.00
2023-03-12T02:35:22.304Z,0.00
2023-03-12T02:36:22.265Z,0.00
2023-03-12T02:37:22.300Z,0.00
2023-03-12T02:38:22.250Z,0.00
2023-03-12T02:39:22.268Z,0.00
2023-03-12T02:40:22.204Z,0.00
2023-03-12T02:41:22.235Z,0.00
2023-03-12T02:42:22.188Z,0.00
2023-03-12T02:43:22.239Z,0.00
2023-03-12T02:44:22.141Z,0.00
2023-03-12T02:45:22.208Z,0.00
2023-03-12T02:46:22.209Z,0.00
2023-03-12T02:47:22.148Z,0.00
2023-03-12T02:48:22.122Z,0.00
2023-03-12T02:49:22.158Z,0.00
2023-03-12T02:50:22.085Z,0.00
2023-03-12T02:51:22.103Z,0.00
2023-03-12T02:52:22.078Z,0.00
2023-03-12T02:53:22.176Z,0.00
2023-03-12T02:54:22.035Z,0.00
2023-03-12T02:55:22.065Z,0.00
2023-03-12T02:56:22.031Z,0.00
2023-03-12T02:57:22.015Z,0.00
2023-03-12T02:58:21.977Z,0.00
2023-03-12T02:59:22.025Z,0.00
2023-03-12T03:00:21.948Z,0.00
2023-03-12T03:01:22.146Z,0.00
2023-03-12T03:02:21.947Z,0.00
2023-03-12T03:03:21.930Z,0.00
2023-03-12T03:04:21.948Z,0.00
2023-03-12T03:05:22.852Z,0.00
2023-03-12T03:06:21.897Z,0.00
2023-03-12T03:07:21.937Z,0.00
2023-03-12T03:08:21.841Z,0.00
2023-03-12T03:09:21.882Z,0.00
2023-03-12T03:10:21.803Z,0.00
2023-03-12T03:11:21.829Z,0.00
2023-03-12T03:12:21.835Z,0.00
2023-03-12T03:13:21.871Z,0.00
2023-03-12T03:14:21.771Z,0.00
2023-03-12T03:15:21.781Z,0.00
2023-03-12T03:16:21.770Z,0.00
2023-03-12T03:17:21.752Z,0.00
2023-03-12T03:18:21.749Z,0.00
2023-03-12T03:19:21.791Z,0.00
2023-03-12T03:20:21.698Z,0.00
2023-03-12T03:21:21.787Z,0.00
2023-03-12T03:22:21.661Z,0.00
2023-03-12T03:23:21.684Z,0.00
2023-03-12T03:24:21.661Z,0.00
2023-03-12T03:25:21.683Z,0.00
2023-03-12T03:26:21.653Z,0.00
2023-03-12T03:27:21.643Z,0.00
2023-03-12T03:28:21.599Z,0.00
2023-03-12T03:29:21.605Z,0.00
2023-03-12T03:30:21.591Z,0.00
2023-03-12T03:31:21.745Z,0.00
2023-03-12T03:32:21.557Z,0.00
2023-03-12T03:33:21.565Z,0.00
2023-03-12T03:34:21.578Z,0.00
2023-03-12T03:35:21.528Z,0.00
2023-03-12T03:36:21.531Z,0.00
2023-03-12T03:37:21.527Z,0.00
2023-03-12T03:38:21.493Z,0.00
2023-03-12T03:39:21.492Z,0.00
2023-03-12T03:40:21.469Z,0.00
2023-03-12T03:41:21.473Z,0.00
2023-03-12T03:42:21.404Z,0.00
2023-03-12T03:43:21.546Z,0.00
2023-03-12T03:44:21.413Z,0.00
2023-03-12T03:45:21.432Z,0.00
2023-03-12T03:46:22.147Z,0.00
2023-03-12T03:47:21.379Z,0.00
2023-03-12T03:48:21.350Z,0.00
2023-03-12T03:49:21.449Z,0.00
2023-03-12T03:50:21.315Z,0.00
2023-03-12T03:51:21.351Z,0.00
2023-03-12T03:52:21.277Z,0.00
2023-03-12T03:53:21.336Z,0.00
2023-03-12T03:54:21.256Z,0.00
2023-03-12T03:55:21.290Z,0.00
2023-03-12T03:56:21.277Z,0.00
2023-03-12T03:57:21.249Z,0.00
2023-03-12T03:58:21.228Z,0.00
2023-03-12T03:59:21.242Z,0.00
2023-03-12T04:00:21.180Z,0.00
2023-03-12T04:01:21.249Z,0.00
2023-03-12T04:02:21.146Z,0.00
2023-03-12T04:03:21.208Z,0.00
2023-03-12T04:04:21.156Z,0.00
2023-03-12T04:05:21.164Z,0.00
2023-03-12T04:06:21.125Z,0.00
2023-03-12T04:07:21.281Z,0.00
2023-03-12T04:08:21.073Z,0.00
2023-03-12T04:09:21.126Z,0.00
2023-03-12T04:10:21.040Z,0.00
2023-03-12T04:11:21.182Z,0.00
2023-03-12T04:12:21.046Z,0.00
2023-03-12T04:13:21.162Z,0.00
2023-03-12T04:14:21.024Z,0.00
2023-03-12T04:15:21.043Z,0.00
2023-03-12T04:16:21.016Z,0.00
2023-03-12T04:17:21.049Z,0.00
2023-03-12T04:18:21.006Z,0.00
2023-03-12T04:19:21.095Z,0.00
2023-03-12T04:20:20.923Z,0.00
2023-03-12T04:21:20.959Z,0.00
2023-03-12T04:22:20.900Z,0.00
2023-03-12T04:23:20.911Z,0.00
2023-03-12T04:24:21.849Z,0.00
2023-03-12T04:25:20.913Z,0.00
2023-03-12T04:26:20.859Z,0.00
2023-03-12T04:27:20.878Z,0.00
2023-03-12T04:28:20.831Z,0.00
2023-03-12T04:29:20.868Z,0.00
2023-03-12T04:30:20.798Z,0.00
2023-03-12T04:31:20.902Z,0.00
2023-03-12T04:32:20.828Z,0.00
2023-03-12T04:33:20.809Z,0.00
2023-03-12T04:34:20.735Z,0.00
2023-03-12T04:35:20.744Z,0.00
2023-03-12T04:36:20.742Z,0.00
2023-03-12T04:37:20.767Z,0.00
2023-03-12T04:38:20.712Z,0.00
2023-03-12T04:39:20.724Z,0.00
2023-03-12T04:40:20.659Z,0.00
2023-03-12T04:41:20.704Z,0.00
2023-03-12T04:42:20.654Z,0.00
2023-03-12T04:43:20.695Z,0.00
2023-03-12T04:44:20.633Z,0.00
2023-03-12T04:45:20.641Z,0.00
2023-03-12T04:46:20.648Z,0.00
2023-03-12T04:47:20.636Z,0.00
2023-03-12T04:48:20.564Z,0.00
2023-03-12T04:49:20.698Z,0.00
2023-03-12T04:50:20.567Z,0.00
2023-03-12T04:51:20.576Z,0.00
2023-03-12T04:52:20.512Z,0.00
2023-03-12T04:53:20.571Z,0.00
2023-03-12T04:54:20.491Z,0.00
2023-03-12T04:55:20.522Z,0.00
2023-03-12T04:56:20.489Z,0.00
2023-03-12T04:57:20.496Z,0.00
2023-03-12T04:58:20.457Z,0.00
2023-03-12T04:59:20.470Z,0.00
2023-03-12T05:00:20.395Z,0.00
2023-03-12T05:01:20.525Z,0.00
2023-03-12T05:02:20.385Z,0.00
2023-03-12T05:03:20.396Z,0.00
2023-03-12T05:04:20.385Z,0.00
2023-03-12T05:05:20.371Z,0.00
2023-03-12T05:06:20.355Z,0.00
2023-03-12T05:07:20.347Z,0.00
2023-03-12T05:08:20.358Z,0.00
2023-03-12T05:09:20.378Z,0.00
2023-03-12T05:10:20.325Z,0.00
2023-03-12T05:11:20.295Z,0.00
2023-03-12T05:12:20.283Z,0.00
2023-03-12T05:13:20.384Z,0.00
2023-03-12T05:14:20.287Z,0.00
2023-03-12T05:15:20.231Z,0.00
2023-03-12T05:16:20.291Z,0.00
2023-03-12T05:17:20.187Z,0.00
2023-03-12T05:18:20.233Z,0.00
2023-03-12T05:19:20.212Z,0.00
2023-03-12T05:20:20.179Z,0.00
2023-03-12T05:21:20.128Z,0.00
2023-03-12T05:22:20.176Z,0.00
2023-03-12T05:23:20.133Z,0.00
2023-03-12T05:24:20.131Z,0.00
2023-03-12T05:25:20.143Z,0.00
2023-03-12T05:26:20.100Z,0.00
2023-03-12T05:27:20.060Z,0.00
2023-03-12T05:28:20.104Z,0.00
2023-03-12T05:29:20.037Z,0.00
2023-03-12T05:30:20.090Z,0.00
2023-03-12T05:31:20.172Z,0.00
2023-03-12T05:32:20.052Z,0.00
2023-03-12T05:33:20.015Z,0.00
2023-03-12T05:34:19.990Z,0.00
2023-03-12T05:35:19.971Z,0.00
2023-03-12T05:36:20.021Z,0.00
2023-03-12T05:37:19.998Z,0.00
2023-03-12T05:38:19.940Z,0.00
2023-03-12T05:39:19.897Z,0.00
2023-03-12T05:40:19.949Z,0.00
2023-03-12T05:41:19.903Z,0.00
2023-03-12T05:42:19.919Z,0.00
2023-03-12T05:43:20.032Z,0.00
2023-03-12T05:44:19.859Z,0.00
2023-03-12T05:45:19.847Z,0.00
2023-03-12T05:46:19.832Z,0.00
2023-03-12T05:47:19.801Z,5.62
2023-03-12T05:48:19.840Z,5.62
2023-03-12T05:49:19.813Z,5.62
2023-03-12T05:50:19.812Z,5.62
2023-03-12T05:51:19.778Z,5.62
2023-03-12T05:52:19.765Z,5.62
2023-03-12T05:53:19.739Z,5.62
2023-03-12T05:54:19.789Z,5.62
2023-03-12T05:55:19.753Z,5.62
2023-03-12T05:56:19.706Z,5.62
2023-03-12T05:57:19.694Z,5.62
2023-03-12T05:58:19.671Z,11.25
2023-03-12T05:59:19.636Z,11.25
2023-03-12T06:00:19.677Z,11.25
2023-03-12T06:01:19.742Z,11.25
2023-03-12T06:02:19.677Z,11.25
2023-03-12T06:03:19.643Z,11.25
2023-03-12T06:04:19.590Z,16.88
2023-03-12T06:05:19.582Z,16.88
2023-03-12T06:06:19.570Z,16.88
2023-03-12T06:07:19.569Z,16.88
2023-03-12T06:08:19.577Z,16.88
2023-03-12T06:09:19.506Z,16.88
2023-03-12T06:10:19.537Z,16.88
2023-03-12T06:11:19.512Z,16.88
2023-03-12T06:12:19.484Z,22.50
2023-03-12T06:13:19.520Z,22.50
2023-03-12T06:14:19.466Z,22.50
2023-03-12T06:15:19.423Z,22.50
2023-03-12T06:16:19.502Z,22.50
2023-03-12T06:17:19.401Z,28.12
2023-03-12T06:18:19.446Z,28.12
2023-03-12T06:19:19.507Z,28.12
2023-03-12T06:20:19.386Z,33.75
2023-03-12T06:21:19.379Z,33.75
2023-03-12T06:22:19.362Z,33.75
2023-03-12T06:23:21.528Z,39.38
2023-03-12T06:24:19.359Z,39.38
2023-03-12T06:25:19.355Z,45.00
2023-03-12T06:26:19.303Z,45.00
2023-03-12T06:27:19.261Z,45.00
2023-03-12T06:28:19.299Z,45.00
2023-03-12T06:29:19.242Z,45.00
2023-03-12T06:30:19.282Z,45.00
2023-03-12T06:31:19.324Z,45.00
2023-03-12T06:32:19.266Z,45.00
2023-03-12T06:33:19.200Z,45.00
2023-03-12T06:34:19.222Z,50.62
2023-03-12T06:35:19.166Z,50.62
2023-03-12T06:36:19.201Z,50.62
2023-03-12T06:37:19.246Z,50.62
2023-03-12T06:38:19.193Z,50.62
2023-03-12T06:39:19.136Z,56.25
2023-03-12T06:40:19.124Z,56.25
2023-03-12T06:41:19.088Z,56.25
2023-03-12T06:42:19.148Z,56.25
2023-03-12T06:43:19.195Z,61.88
2023-03-12T06:44:19.056Z,61.88
2023-03-12T06:45:19.052Z,61.88
2023-03-12T06:46:19.103Z,67.50
2023-03-12T06:47:19.007Z,67.50
2023-03-12T06:48:19.072Z,67.50
2023-03-12T06:49:18.991Z,73.12
2023-03-12T06:50:19.001Z,73.12
2023-03-12T06:51:18.961Z,73.12
2023-03-12T06:52:18.953Z,73.12
2023-03-12T06:53:18.953Z,78.75
2023-03-12T06:54:18.930Z,78.75
2023-03-12T06:55:18.908Z,78.75
2023-03-12T06:56:18.934Z,78.75
2023-03-12T06:57:18.885Z,84.38
2023-03-12T06:58:19.176Z,90.00
2023-03-12T06:59:18.827Z,101.25
2023-03-12T07:00:18.875Z,106.88
2023-03-12T07:01:18.839Z,112.50
2023-03-12T07:02:18.916Z,118.12
2023-03-12T07:03:18.818Z,118.12
2023-03-12T07:04:18.790Z,118.12
2023-03-12T07:05:18.806Z,118.12
2023-03-12T07:06:18.775Z,106.88
2023-03-12T07:07:19.121Z,101.25
2023-03-12T07:08:18.776Z,95.62
2023-03-12T07:09:18.712Z,95.62
2023-03-12T07:10:18.752Z,95.62
2023-03-12T07:11:18.712Z,101.25
2023-03-12T07:12:18.695Z,101.25
2023-03-12T07:13:18.792Z,112.50
2023-03-12T07:14:18.667Z,123.75
2023-03-12T07:15:18.636Z,135.00
2023-03-12T07:16:18.905Z,140.62
2023-03-12T07:17:18.610Z,146.25
2023-03-12T07:18:18.643Z,151.88
2023-03-12T07:19:18.636Z,151.88
2023-03-12T07:20:18.591Z,157.50
2023-03-12T07:21:18.577Z,157.50
2023-03-12T07:22:18.568Z,151.88
2023-03-12T07:23:18.529Z,151.88
2023-03-12T07:24:18.737Z,146.25
2023-03-12T07:25:19.118Z,140.62
2023-03-12T07:26:18.707Z,140.62
2023-03-12T07:27:18.784Z,135.00
2023-03-12T07:28:18.630Z,135.00
2023-03-12T07:29:18.564Z,135.00
2023-03-12T07:30:18.560Z,129.38
2023-03-12T07:31:18.550Z,129.38
2023-03-12T07:32:18.477Z,129.38
2023-03-12T07:33:18.499Z,129.38
2023-03-12T07:34:18.583Z,129.38
2023-03-12T07:35:18.565Z,135.00
2023-03-12T07:36:18.575Z,140.62
2023-03-12T07:37:18.513Z,146.25
2023-03-12T07:38:18.482Z,146.25
2023-03-12T07:39:18.380Z,151.88
2023-03-12T07:40:18.415Z,157.50
2023-03-12T07:41:18.324Z,157.50
2023-03-12T07:42:18.391Z,157.50
2023-03-12T07:43:20.410Z,146.25
2023-03-12T07:44:18.317Z,140.62
2023-03-12T07:45:18.342Z,135.00
2023-03-12T07:46:18.355Z,129.38
2023-03-12T07:47:24.179Z,123.75
2023-03-12T07:48:19.338Z,123.75
2023-03-12T07:49:18.193Z,123.75
2023-03-12T07:50:18.279Z,123.75
2023-03-12T07:51:18.198Z,129.38
2023-03-12T07:52:18.318Z,129.38
2023-03-12T07:53:18.172Z,135.00
2023-03-12T07:54:18.211Z,129.38
2023-03-12T07:55:18.224Z,129.38
2023-03-12T07:56:18.235Z,123.75
2023-03-12T07:57:18.311Z,118.12
2023-03-12T07:59:48.140Z,106.88
2023-03-12T08:00:29.312Z,106.88
2023-03-12T08:01:29.334Z,106.88
2023-03-12T08:02:29.229Z,106.88
2023-03-12T08:03:29.518Z,106.88
2023-03-12T08:04:29.217Z,112.50
2023-03-12T08:05:29.141Z,112.50
2023-03-12T08:06:29.053Z,118.12
2023-03-12T08:07:29.050Z,123.75
2023-03-12T08:08:29.069Z,129.38
2023-03-12T08:09:28.958Z,135.00
2023-03-12T08:10:29.117Z,135.00
2023-03-12T08:11:28.980Z,135.00
2023-03-12T08:12:29.025Z,135.00
2023-03-12T08:13:28.974Z,129.38
2023-03-12T08:14:28.975Z,123.75
2023-03-12T08:15:28.938Z,118.12
2023-03-12T08:16:28.971Z,118.12
2023-03-12T08:17:29.008Z,123.75
2023-03-12T08:18:28.914Z,129.38
2023-03-12T08:19:28.830Z,129.38
2023-03-12T08:20:29.003Z,135.00
2023-03-12T08:21:28.809Z,140.62
2023-03-12T08:22:28.827Z,146.25
2023-03-12T08:23:28.845Z,151.88
2023-03-12T08:24:28.804Z,163.12
2023-03-12T08:25:28.774Z,174.38
2023-03-12T08:26:28.803Z,180.00
2023-03-12T08:27:28.727Z,185.62
2023-03-12T08:28:28.749Z,191.25
2023-03-12T08:29:28.767Z,202.50
2023-03-12T08:30:30.293Z,208.12
2023-03-12T08:31:28.781Z,208.12
2023-03-12T08:32:28.825Z,202.50
2023-03-12T08:33:28.652Z,191.25
2023-03-12T08:34:28.664Z,185.62
2023-03-12T08:35:28.780Z,180.00
2023-03-12T08:36:28.636Z,180.00
2023-03-12T08:37:28.634Z,185.62
2023-03-12T08:38:28.636Z,196.88
2023-03-12T08:39:28.570Z,196.88
2023-03-12T08:40:28.653Z,191.25
2023-03-12T08:41:28.600Z,180.00
2023-03-12T08:42:28.570Z,174.38
2023-03-12T08:43:29.469Z,174.38
2023-03-12T08:44:28.529Z,180.00
2023-03-12T08:45:28.666Z,185.62
2023-03-12T08:46:28.545Z,191.25
2023-03-12T08:47:28.493Z,196.88
2023-03-12T08:48:28.510Z,208.12
2023-03-12T08:49:28.442Z,213.75
2023-03-12T08:50:28.488Z,230.62
2023-03-12T08:51:28.447Z,253.12
2023-03-12T08:52:28.426Z,270.00
2023-03-12T08:53:28.579Z,281.25
2023-03-12T08:54:28.425Z,286.88
2023-03-12T08:55:28.387Z,281.25
2023-03-12T08:56:28.404Z,275.62
2023-03-12T08:57:28.379Z,281.25
2023-03-12T08:58:28.370Z,281.25
2023-03-12T08:59:28.475Z,281.25
2023-03-12T09:00:28.366Z,281.25
2023-03-12T09:01:28.278Z,286.88
2023-03-12T09:02:28.300Z,298.12
2023-03-12T09:03:28.345Z,303.75
2023-03-12T09:04:28.321Z,298.12
2023-03-12T09:05:28.297Z,292.50
2023-03-12T09:06:28.655Z,286.88
2023-03-12T09:07:28.203Z,281.25
2023-03-12T09:08:28.258Z,275.62
2023-03-12T09:09:28.197Z,270.00
2023-03-12T09:10:30.804Z,264.38
2023-03-12T09:11:28.219Z,275.62
2023-03-12T09:12:28.174Z,281.25
2023-03-12T09:13:45.312Z,275.62
2023-03-12T09:15:01.677Z,264.38
2023-03-12T09:15:29.108Z,253.12
2023-03-12T09:16:28.181Z,253.12
2023-03-12T09:17:28.219Z,264.38
2023-03-12T09:18:28.127Z,281.25
2023-03-12T09:19:28.045Z,298.12
2023-03-12T09:20:28.081Z,315.00
2023-03-12T09:21:28.045Z,337.50
2023-03-12T09:22:28.032Z,348.75
2023-03-12T09:23:28.060Z,360.00
2023-03-12T09:24:28.002Z,376.88
2023-03-12T09:25:27.996Z,376.88
2023-03-12T09:26:27.999Z,371.25
2023-03-12T09:27:27.984Z,376.88
2023-03-12T09:28:28.298Z,388.12
2023-03-12T09:29:27.941Z,399.38
2023-03-12T09:30:28.176Z,416.25
2023-03-12T09:31:27.941Z,421.88
2023-03-12T09:32:28.049Z,410.62
2023-03-12T09:33:27.878Z,388.12
2023-03-12T09:34:27.883Z,371.25
2023-03-12T09:35:27.950Z,354.38
2023-03-12T09:36:27.844Z,343.12
2023-03-12T09:37:27.839Z,331.88
2023-03-12T09:38:27.849Z,326.25
2023-03-12T09:39:27.803Z,315.00
2023-03-12T09:40:27.827Z,286.88
2023-03-12T09:41:27.790Z,264.38
2023-03-12T09:42:27.774Z,264.38
2023-03-12T09:43:27.756Z,275.62
2023-03-12T09:44:27.723Z,286.88
2023-03-12T09:45:27.718Z,292.50
2023-03-12T09:46:27.792Z,292.50
2023-03-12T09:47:27.794Z,292.50
2023-03-12T09:48:27.730Z,303.75
2023-03-12T09:49:27.643Z,309.38
2023-03-12T09:50:27.696Z,309.38
2023-03-12T09:51:27.638Z,320.62
2023-03-12T09:52:27.638Z,309.38
2023-03-12T09:53:27.650Z,292.50
2023-03-12T09:54:27.642Z,281.25
2023-03-12T09:55:27.546Z,264.38
2023-03-12T09:56:27.615Z,241.88
2023-03-12T09:57:27.538Z,225.00
2023-03-12T09:58:27.536Z,230.62
2023-03-12T09:59:27.699Z,236.25
2023-03-12T10:00:27.518Z,225.00
2023-03-12T10:01:27.512Z,213.75
2023-03-12T10:02:27.525Z,213.75
2023-03-12T10:03:27.488Z,236.25
2023-03-12T10:04:27.491Z,270.00
2023-03-12T10:05:27.563Z,286.88
2023-03-12T10:06:27.529Z,281.25
2023-03-12T10:07:27.411Z,270.00
2023-03-12T10:08:30.354Z,258.75
2023-03-12T10:09:27.390Z,258.75
2023-03-12T10:10:27.391Z,264.38
2023-03-12T10:11:27.509Z,281.25
2023-03-12T10:12:27.364Z,309.38
2023-03-12T10:13:27.350Z,320.62
2023-03-12T10:14:27.366Z,326.25
2023-03-12T10:15:27.324Z,326.25
2023-03-12T10:16:28.051Z,326.25
2023-03-12T10:17:27.324Z,326.25
2023-03-12T10:18:27.431Z,331.88
2023-03-12T10:19:27.271Z,309.38
2023-03-12T10:20:27.289Z,286.88
2023-03-12T10:21:27.235Z,270.00
2023-03-12T10:22:27.221Z,264.38
2023-03-12T10:23:27.340Z,264.38
2023-03-12T10:24:27.204Z,258.75
2023-03-12T10:25:27.197Z,253.12
2023-03-12T10:26:27.204Z,253.12
2023-03-12T10:27:27.140Z,253.12
2023-03-12T10:28:27.176Z,253.12
2023-03-12T10:29:27.159Z,258.75
2023-03-12T10:30:27.136Z,258.75
2023-03-12T10:31:27.193Z,258.75
2023-03-12T10:32:27.133Z,264.38
2023-03-12T10:33:27.094Z,258.75
2023-03-12T10:34:27.104Z,241.88
2023-03-12T10:35:27.072Z,225.00
2023-03-12T10:36:27.049Z,225.00
2023-03-12T10:37:27.033Z,236.25
2023-03-12T10:38:27.873Z,253.12
2023-03-12T10:39:26.977Z,281.25
2023-03-12T10:40:27.022Z,298.12
2023-03-12T10:41:27.048Z,326.25
2023-03-12T10:42:26.950Z,337.50
2023-03-12T10:43:26.946Z,348.75
2023-03-12T10:44:26.941Z,343.12
2023-03-12T10:45:26.921Z,343.12
2023-03-12T10:46:27.020Z,331.88
2023-03-12T10:47:26.965Z,326.25
2023-03-12T10:48:26.916Z,331.88
2023-03-12T10:49:26.837Z,326.25
2023-03-12T10:50:26.858Z,315.00
2023-03-12T10:51:26.836Z,309.38
2023-03-12T10:52:26.831Z,281.25
2023-03-12T10:53:29.625Z,258.75
2023-03-12T10:54:26.768Z,236.25
2023-03-12T10:55:26.818Z,219.38
2023-03-12T10:56:26.856Z,208.12
2023-03-12T10:57:26.786Z,202.50
2023-03-12T10:58:26.747Z,202.50
2023-03-12T10:59:26.773Z,213.75
2023-03-12T11:00:26.721Z,225.00
2023-03-12T11:01:26.737Z,225.00
2023-03-12T11:02:26.662Z,219.38
2023-03-12T11:03:26.708Z,213.75
2023-03-12T11:04:29.835Z,191.25
2023-03-12T11:05:26.712Z,185.62
2023-03-12T11:06:26.654Z,185.62
2023-03-12T11:07:26.625Z,191.25
2023-03-12T11:08:26.585Z,196.88
2023-03-12T11:09:26.620Z,196.88
2023-03-12T11:10:26.591Z,185.62
2023-03-12T11:11:26.627Z,191.25
2023-03-12T11:12:26.572Z,174.38
2023-03-12T11:13:26.549Z,180.00
2023-03-12T11:14:26.523Z,185.62
2023-03-12T11:15:26.548Z,202.50
2023-03-12T11:16:27.036Z,202.50
2023-03-12T11:17:26.644Z,213.75
2023-03-12T11:18:26.471Z,236.25
2023-03-12T11:19:26.463Z,241.88
2023-03-12T11:20:26.453Z,230.62
2023-03-12T11:21:26.433Z,225.00
2023-03-12T11:22:26.402Z,219.38
2023-03-12T11:23:26.562Z,213.75
2023-03-12T11:24:26.394Z,213.75
2023-03-12T11:25:26.390Z,225.00
2023-03-12T11:26:26.347Z,241.88
2023-03-12T11:27:26.383Z,219.38
2023-03-12T11:28:26.369Z,213.75
2023-03-12T11:29:26.495Z,219.38
2023-03-12T11:30:26.361Z,225.00
2023-03-12T11:31:26.336Z,202.50
2023-03-12T11:32:26.284Z,196.88
2023-03-12T11:33:26.277Z,196.88
2023-03-12T11:34:26.250Z,213.75
2023-03-12T11:35:26.418Z,230.62
2023-03-12T11:36:26.208Z,247.50
2023-03-12T11:37:26.271Z,236.25
2023-03-12T11:38:26.216Z,230.62
2023-03-12T11:39:26.190Z,202.50
2023-03-12T11:40:26.154Z,185.62
2023-03-12T11:41:26.228Z,180.00
2023-03-12T11:42:26.172Z,174.38
2023-03-12T11:43:41.675Z,146.25
2023-03-12T11:44:27.127Z,135.00
2023-03-12T11:45:26.125Z,140.62
2023-03-12T11:46:26.111Z,151.88
2023-03-12T11:47:26.194Z,140.62
2023-03-12T11:48:26.094Z,123.75
2023-03-12T11:49:26.090Z,123.75
2023-03-12T11:50:26.785Z,123.75
2023-03-12T11:51:26.028Z,123.75
2023-03-12T11:52:26.020Z,118.12
2023-03-12T11:53:26.135Z,118.12
2023-03-12T11:54:25.974Z,112.50
2023-03-12T11:55:26.743Z,106.88
2023-03-12T11:56:25.942Z,106.88
2023-03-12T11:57:25.972Z,101.25
2023-03-12T11:58:25.944Z,95.62
2023-03-12T11:59:25.982Z,106.88
2023-03-12T12:00:25.905Z,118.12
2023-03-12T12:01:25.899Z,135.00
2023-03-12T12:02:25.950Z,163.12
2023-03-12T12:03:25.959Z,157.50
2023-03-12T12:04:25.828Z,157.50
2023-03-12T12:05:25.954Z,157.50
2023-03-12T12:06:25.849Z,180.00
2023-03-12T12:07:25.835Z,174.38
2023-03-12T12:08:25.841Z,174.38
2023-03-12T12:09:25.798Z,185.62
2023-03-12T12:10:25.764Z,202.50
2023-03-12T12:11:25.942Z,213.75
2023-03-12T12:12:25.754Z,196.88
2023-03-12T12:13:25.739Z,174.38
2023-03-12T12:14:25.718Z,146.25
2023-03-12T12:15:25.743Z,112.50
2023-03-12T12:16:25.723Z,90.00
2023-03-12T12:17:25.827Z,73.12
2023-03-12T12:18:25.683Z,84.38
2023-03-12T12:19:25.670Z,101.25
2023-03-12T12:20:25.645Z,112.50
2023-03-12T12:21:25.640Z,118.12
2023-03-12T12:22:25.589Z,135.00
2023-03-12T12:23:25.749Z,163.12
2023-03-12T12:24:25.578Z,157.50
2023-03-12T12:25:25.609Z,151.88
2023-03-12T12:26:25.552Z,163.12
2023-03-12T12:27:25.564Z,168.75
2023-03-12T12:28:25.516Z,151.88
2023-03-12T12:29:25.584Z,135.00
2023-03-12T12:30:25.509Z,129.38
2023-03-12T12:31:25.511Z,123.75
2023-03-12T12:32:25.517Z,129.38
2023-03-12T12:33:25.464Z,140.62
2023-03-12T12:34:25.426Z,129.38
2023-03-12T12:35:25.515Z,123.75
2023-03-12T12:36:25.425Z,123.75
2023-03-12T12:37:25.460Z,140.62
2023-03-12T12:38:25.403Z,151.88
2023-03-12T12:39:25.399Z,129.38
2023-03-12T12:40:25.374Z,118.12
2023-03-12T12:41:25.386Z,112.50
2023-03-12T12:42:25.338Z,112.50
2023-03-12T12:43:25.369Z,118.12
2023-03-12T12:44:25.320Z,118.12
2023-03-12T12:45:25.318Z,118.12
2023-03-12T12:46:25.372Z,123.75
2023-03-12T12:47:25.335Z,135.00
2023-03-12T12:48:25.265Z,129.38
2023-03-12T12:49:25.318Z,129.38
2023-03-12T12:50:25.257Z,129.38
2023-03-12T12:51:25.241Z,129.38
2023-03-12T12:52:25.240Z,140.62
2023-03-12T12:53:25.242Z,151.88
2023-03-12T12:54:25.180Z,151.88